sensor_id;sensor_type;location;lat;lon;timestamp;P1;durP1;ratioP1;P2;durP2;ratioP2
11533;SDS011;5823;50.588;8.462;2022-08-24T00:00:50;0.30;;;0.30;;
11533;SDS011;5823;50.588;8.462;2022-08-24T00:03:18;0.40;;;0.40;;
11533;SDS011;5823;50.588;8.462;2022-08-24T00:05:44;0.52;;;0.52;;
11533;SDS011;5823;50.588;8.462;2022-08-24T00:08:11;0.90;;;0.90;;
11533;SDS011;5823;50.588;8.462;2022-08-24T00:10:38;0.45;;;0.45;;
11533;SDS011;5823;50.588;8.462;2022-08-24T00:13:04;0.50;;;0.50;;
11533;SDS011;5823;50.588;8.462;2022-08-24T00:15:31;0.63;;;0.60;;
11533;SDS011;5823;50.588;8.462;2022-08-24T00:17:57;0.60;;;0.60;;
11533;SDS011;5823;50.588;8.462;2022-08-24T00:20:25;0.45;;;0.45;;
11533;SDS011;5823;50.588;8.462;2022-08-24T00:22:52;0.30;;;0.30;;
11533;SDS011;5823;50.588;8.462;2022-08-24T00:25:18;0.50;;;0.50;;
11533;SDS011;5823;50.588;8.462;2022-08-24T00:27:45;0.65;;;0.65;;
11533;SDS011;5823;50.588;8.462;2022-08-24T00:30:12;0.45;;;0.43;;
11533;SDS011;5823;50.588;8.462;2022-08-24T00:32:39;0.45;;;0.45;;
11533;SDS011;5823;50.588;8.462;2022-08-24T00:35:06;0.43;;;0.43;;
11533;SDS011;5823;50.588;8.462;2022-08-24T00:37:34;0.45;;;0.45;;
11533;SDS011;5823;50.588;8.462;2022-08-24T00:40:01;0.57;;;0.57;;
11533;SDS011;5823;50.588;8.462;2022-08-24T00:42:27;0.90;;;0.90;;
11533;SDS011;5823;50.588;8.462;2022-08-24T00:44:54;0.20;;;0.20;;
11533;SDS011;5823;50.588;8.462;2022-08-24T00:47:21;0.40;;;0.40;;
11533;SDS011;5823;50.588;8.462;2022-08-24T00:49:51;0.50;;;0.50;;
11533;SDS011;5823;50.588;8.462;2022-08-24T00:52:20;0.50;;;0.50;;
11533;SDS011;5823;50.588;8.462;2022-08-24T00:54:51;0.50;;;0.50;;
11533;SDS011;5823;50.588;8.462;2022-08-24T00:57:19;0.30;;;0.30;;
11533;SDS011;5823;50.588;8.462;2022-08-24T00:59:47;0.50;;;0.50;;
11533;SDS011;5823;50.588;8.462;2022-08-24T01:02:16;0.50;;;0.50;;
11533;SDS011;5823;50.588;8.462;2022-08-24T01:04:44;0.50;;;0.50;;
11533;SDS011;5823;50.588;8.462;2022-08-24T01:07:13;0.70;;;0.70;;
11533;SDS011;5823;50.588;8.462;2022-08-24T01:09:40;1.08;;;0.50;;
11533;SDS011;5823;50.588;8.462;2022-08-24T01:12:08;0.65;;;0.65;;
11533;SDS011;5823;50.588;8.462;2022-08-24T01:14:34;0.60;;;0.57;;
11533;SDS011;5823;50.588;8.462;2022-08-24T01:17:01;0.52;;;0.52;;
11533;SDS011;5823;50.588;8.462;2022-08-24T01:19:46;0.55;;;0.55;;
11533;SDS011;5823;50.588;8.462;2022-08-24T01:22:15;0.45;;;0.40;;
11533;SDS011;5823;50.588;8.462;2022-08-24T01:24:47;0.47;;;0.47;;
11533;SDS011;5823;50.588;8.462;2022-08-24T01:27:13;0.43;;;0.43;;
11533;SDS011;5823;50.588;8.462;2022-08-24T01:29:40;0.45;;;0.45;;
11533;SDS011;5823;50.588;8.462;2022-08-24T01:32:07;0.50;;;0.38;;
11533;SDS011;5823;50.588;8.462;2022-08-24T01:34:33;1.17;;;0.60;;
11533;SDS011;5823;50.588;8.462;2022-08-24T01:37:00;0.40;;;0.40;;
11533;SDS011;5823;50.588;8.462;2022-08-24T01:39:28;0.43;;;0.43;;
11533;SDS011;5823;50.588;8.462;2022-08-24T01:41:56;0.30;;;0.30;;
11533;SDS011;5823;50.588;8.462;2022-08-24T01:44:23;0.68;;;0.68;;
11533;SDS011;5823;50.588;8.462;2022-08-24T01:46:51;0.40;;;0.40;;
11533;SDS011;5823;50.588;8.462;2022-08-24T01:49:19;0.50;;;0.50;;
11533;SDS011;5823;50.588;8.462;2022-08-24T01:51:45;0.43;;;0.43;;
11533;SDS011;5823;50.588;8.462;2022-08-24T01:54:12;0.47;;;0.47;;
11533;SDS011;5823;50.588;8.462;2022-08-24T01:56:38;0.47;;;0.47;;
11533;SDS011;5823;50.588;8.462;2022-08-24T01:59:06;0.45;;;0.45;;
11533;SDS011;5823;50.588;8.462;2022-08-24T02:01:33;0.30;;;0.30;;
11533;SDS011;5823;50.588;8.462;2022-08-24T02:04:01;0.50;;;0.50;;
11533;SDS011;5823;50.588;8.462;2022-08-24T02:06:28;0.43;;;0.43;;
11533;SDS011;5823;50.588;8.462;2022-08-24T02:08:54;0.40;;;0.40;;
11533;SDS011;5823;50.588;8.462;2022-08-24T02:11:21;0.30;;;0.30;;
11533;SDS011;5823;50.588;8.462;2022-08-24T02:13:47;0.60;;;0.60;;
11533;SDS011;5823;50.588;8.462;2022-08-24T02:16:15;0.40;;;0.40;;
11533;SDS011;5823;50.588;8.462;2022-08-24T02:18:41;0.50;;;0.50;;
11533;SDS011;5823;50.588;8.462;2022-08-24T02:21:07;0.40;;;0.40;;
11533;SDS011;5823;50.588;8.462;2022-08-24T02:23:34;0.22;;;0.22;;
11533;SDS011;5823;50.588;8.462;2022-08-24T02:26:01;0.43;;;0.43;;
11533;SDS011;5823;50.588;8.462;2022-08-24T02:28:27;0.35;;;0.35;;
11533;SDS011;5823;50.588;8.462;2022-08-24T02:30:54;0.43;;;0.43;;
11533;SDS011;5823;50.588;8.462;2022-08-24T02:33:21;0.45;;;0.45;;
11533;SDS011;5823;50.588;8.462;2022-08-24T02:35:48;0.50;;;0.50;;
11533;SDS011;5823;50.588;8.462;2022-08-24T02:38:15;0.40;;;0.40;;
11533;SDS011;5823;50.588;8.462;2022-08-24T02:40:42;0.30;;;0.30;;
11533;SDS011;5823;50.588;8.462;2022-08-24T02:43:09;0.50;;;0.50;;
11533;SDS011;5823;50.588;8.462;2022-08-24T02:45:36;0.88;;;0.50;;
11533;SDS011;5823;50.588;8.462;2022-08-24T02:48:03;0.50;;;0.50;;
11533;SDS011;5823;50.588;8.462;2022-08-24T02:50:31;0.50;;;0.50;;
11533;SDS011;5823;50.588;8.462;2022-08-24T02:52:57;0.40;;;0.40;;
11533;SDS011;5823;50.588;8.462;2022-08-24T02:55:23;0.68;;;0.68;;
11533;SDS011;5823;50.588;8.462;2022-08-24T02:57:50;0.57;;;0.40;;
11533;SDS011;5823;50.588;8.462;2022-08-24T03:00:17;0.90;;;0.68;;
11533;SDS011;5823;50.588;8.462;2022-08-24T03:02:44;0.63;;;0.63;;
11533;SDS011;5823;50.588;8.462;2022-08-24T03:05:10;0.38;;;0.38;;
11533;SDS011;5823;50.588;8.462;2022-08-24T03:07:39;0.50;;;0.50;;
11533;SDS011;5823;50.588;8.462;2022-08-24T03:10:06;0.40;;;0.40;;
11533;SDS011;5823;50.588;8.462;2022-08-24T03:12:32;0.50;;;0.50;;
11533;SDS011;5823;50.588;8.462;2022-08-24T03:14:59;0.50;;;0.50;;
11533;SDS011;5823;50.588;8.462;2022-08-24T03:17:27;0.50;;;0.50;;
11533;SDS011;5823;50.588;8.462;2022-08-24T03:19:54;0.60;;;0.60;;
11533;SDS011;5823;50.588;8.462;2022-08-24T03:22:21;0.70;;;0.70;;
11533;SDS011;5823;50.588;8.462;2022-08-24T03:24:49;0.50;;;0.50;;
11533;SDS011;5823;50.588;8.462;2022-08-24T03:27:15;0.55;;;0.55;;
11533;SDS011;5823;50.588;8.462;2022-08-24T03:29:41;0.50;;;0.50;;
11533;SDS011;5823;50.588;8.462;2022-08-24T03:32:08;0.50;;;0.50;;
11533;SDS011;5823;50.588;8.462;2022-08-24T03:34:34;0.50;;;0.50;;
11533;SDS011;5823;50.588;8.462;2022-08-24T03:37:01;0.30;;;0.30;;
11533;SDS011;5823;50.588;8.462;2022-08-24T03:39:28;0.57;;;0.57;;
11533;SDS011;5823;50.588;8.462;2022-08-24T03:41:55;1.10;;;0.70;;
11533;SDS011;5823;50.588;8.462;2022-08-24T03:44:22;0.50;;;0.50;;
11533;SDS011;5823;50.588;8.462;2022-08-24T03:46:50;0.52;;;0.52;;
11533;SDS011;5823;50.588;8.462;2022-08-24T03:49:16;0.60;;;0.60;;
11533;SDS011;5823;50.588;8.462;2022-08-24T03:51:43;0.47;;;0.47;;
11533;SDS011;5823;50.588;8.462;2022-08-24T03:54:09;0.60;;;0.60;;
11533;SDS011;5823;50.588;8.462;2022-08-24T03:56:36;0.30;;;0.30;;
11533;SDS011;5823;50.588;8.462;2022-08-24T03:59:04;0.32;;;0.32;;
11533;SDS011;5823;50.588;8.462;2022-08-24T04:01:31;0.40;;;0.40;;
11533;SDS011;5823;50.588;8.462;2022-08-24T04:03:58;0.50;;;0.50;;
11533;SDS011;5823;50.588;8.462;2022-08-24T04:06:24;0.45;;;0.45;;
11533;SDS011;5823;50.588;8.462;2022-08-24T04:08:51;0.65;;;0.65;;
11533;SDS011;5823;50.588;8.462;2022-08-24T04:11:18;0.50;;;0.50;;
11533;SDS011;5823;50.588;8.462;2022-08-24T04:13:45;0.60;;;0.60;;
11533;SDS011;5823;50.588;8.462;2022-08-24T04:16:14;0.50;;;0.50;;
11533;SDS011;5823;50.588;8.462;2022-08-24T04:18:40;0.50;;;0.50;;
11533;SDS011;5823;50.588;8.462;2022-08-24T04:21:14;0.68;;;0.68;;
11533;SDS011;5823;50.588;8.462;2022-08-24T04:23:40;0.98;;;0.88;;
11533;SDS011;5823;50.588;8.462;2022-08-24T04:26:07;0.57;;;0.57;;
11533;SDS011;5823;50.588;8.462;2022-08-24T04:28:33;0.50;;;0.50;;
11533;SDS011;5823;50.588;8.462;2022-08-24T04:31:00;0.40;;;0.40;;
11533;SDS011;5823;50.588;8.462;2022-08-24T04:33:30;0.55;;;0.55;;
11533;SDS011;5823;50.588;8.462;2022-08-24T04:35:57;0.63;;;0.57;;
11533;SDS011;5823;50.588;8.462;2022-08-24T04:38:23;0.60;;;0.60;;
11533;SDS011;5823;50.588;8.462;2022-08-24T04:40:50;0.68;;;0.60;;
11533;SDS011;5823;50.588;8.462;2022-08-24T04:43:17;0.77;;;0.77;;
11533;SDS011;5823;50.588;8.462;2022-08-24T04:45:45;0.55;;;0.55;;
11533;SDS011;5823;50.588;8.462;2022-08-24T04:48:12;0.80;;;0.70;;
11533;SDS011;5823;50.588;8.462;2022-08-24T04:50:41;0.75;;;0.75;;
11533;SDS011;5823;50.588;8.462;2022-08-24T04:53:08;1.65;;;0.73;;
11533;SDS011;5823;50.588;8.462;2022-08-24T04:55:40;0.30;;;0.30;;
11533;SDS011;5823;50.588;8.462;2022-08-24T04:58:07;0.20;;;0.20;;
11533;SDS011;5823;50.588;8.462;2022-08-24T05:00:34;0.75;;;0.50;;
11533;SDS011;5823;50.588;8.462;2022-08-24T05:03:00;0.80;;;0.80;;
11533;SDS011;5823;50.588;8.462;2022-08-24T05:05:27;0.70;;;0.70;;
11533;SDS011;5823;50.588;8.462;2022-08-24T05:07:55;0.52;;;0.52;;
11533;SDS011;5823;50.588;8.462;2022-08-24T05:10:21;0.43;;;0.43;;
11533;SDS011;5823;50.588;8.462;2022-08-24T05:12:48;0.60;;;0.60;;
11533;SDS011;5823;50.588;8.462;2022-08-24T05:15:14;0.40;;;0.40;;
11533;SDS011;5823;50.588;8.462;2022-08-24T05:17:41;0.30;;;0.30;;
11533;SDS011;5823;50.588;8.462;2022-08-24T05:20:08;0.47;;;0.47;;
11533;SDS011;5823;50.588;8.462;2022-08-24T05:22:35;0.60;;;0.60;;
11533;SDS011;5823;50.588;8.462;2022-08-24T05:25:03;0.90;;;0.90;;
11533;SDS011;5823;50.588;8.462;2022-08-24T05:27:31;0.60;;;0.60;;
11533;SDS011;5823;50.588;8.462;2022-08-24T05:29:57;0.40;;;0.40;;
11533;SDS011;5823;50.588;8.462;2022-08-24T05:32:24;0.65;;;0.50;;
11533;SDS011;5823;50.588;8.462;2022-08-24T05:34:50;0.80;;;0.80;;
11533;SDS011;5823;50.588;8.462;2022-08-24T05:37:16;0.80;;;0.73;;
11533;SDS011;5823;50.588;8.462;2022-08-24T05:39:43;1.25;;;0.80;;
11533;SDS011;5823;50.588;8.462;2022-08-24T05:42:10;1.00;;;0.90;;
11533;SDS011;5823;50.588;8.462;2022-08-24T05:44:37;1.20;;;1.10;;
11533;SDS011;5823;50.588;8.462;2022-08-24T05:47:04;0.68;;;0.68;;
11533;SDS011;5823;50.588;8.462;2022-08-24T05:49:30;0.75;;;0.75;;
11533;SDS011;5823;50.588;8.462;2022-08-24T05:51:56;0.45;;;0.45;;
11533;SDS011;5823;50.588;8.462;2022-08-24T05:54:23;1.10;;;0.80;;
11533;SDS011;5823;50.588;8.462;2022-08-24T05:56:50;0.57;;;0.57;;
11533;SDS011;5823;50.588;8.462;2022-08-24T05:59:18;0.60;;;0.60;;
11533;SDS011;5823;50.588;8.462;2022-08-24T06:01:46;0.50;;;0.50;;
11533;SDS011;5823;50.588;8.462;2022-08-24T06:04:13;0.50;;;0.50;;
11533;SDS011;5823;50.588;8.462;2022-08-24T06:06:39;0.88;;;0.88;;
11533;SDS011;5823;50.588;8.462;2022-08-24T06:09:06;0.55;;;0.55;;
11533;SDS011;5823;50.588;8.462;2022-08-24T06:11:35;0.40;;;0.40;;
11533;SDS011;5823;50.588;8.462;2022-08-24T06:14:02;0.85;;;0.80;;
11533;SDS011;5823;50.588;8.462;2022-08-24T06:16:32;0.80;;;0.80;;
11533;SDS011;5823;50.588;8.462;2022-08-24T06:18:59;0.80;;;0.80;;
11533;SDS011;5823;50.588;8.462;2022-08-24T06:21:25;0.80;;;0.80;;
11533;SDS011;5823;50.588;8.462;2022-08-24T06:23:52;0.60;;;0.60;;
11533;SDS011;5823;50.588;8.462;2022-08-24T06:26:19;0.77;;;0.77;;
11533;SDS011;5823;50.588;8.462;2022-08-24T06:29:00;0.70;;;0.70;;
11533;SDS011;5823;50.588;8.462;2022-08-24T06:31:26;0.60;;;0.60;;
11533;SDS011;5823;50.588;8.462;2022-08-24T06:33:54;0.55;;;0.55;;
11533;SDS011;5823;50.588;8.462;2022-08-24T06:36:20;0.50;;;0.50;;
11533;SDS011;5823;50.588;8.462;2022-08-24T06:38:47;0.80;;;0.80;;
11533;SDS011;5823;50.588;8.462;2022-08-24T06:41:13;0.77;;;0.60;;
11533;SDS011;5823;50.588;8.462;2022-08-24T06:43:39;0.40;;;0.40;;
11533;SDS011;5823;50.588;8.462;2022-08-24T06:46:06;0.45;;;0.40;;
11533;SDS011;5823;50.588;8.462;2022-08-24T06:48:32;0.73;;;0.73;;
11533;SDS011;5823;50.588;8.462;2022-08-24T06:51:00;0.65;;;0.65;;
11533;SDS011;5823;50.588;8.462;2022-08-24T06:53:26;0.60;;;0.60;;
11533;SDS011;5823;50.588;8.462;2022-08-24T06:55:54;0.55;;;0.52;;
11533;SDS011;5823;50.588;8.462;2022-08-24T06:58:21;1.83;;;0.60;;
11533;SDS011;5823;50.588;8.462;2022-08-24T07:00:48;0.50;;;0.50;;
11533;SDS011;5823;50.588;8.462;2022-08-24T07:03:15;0.60;;;0.60;;
11533;SDS011;5823;50.588;8.462;2022-08-24T07:05:48;0.40;;;0.30;;
11533;SDS011;5823;50.588;8.462;2022-08-24T07:08:15;0.43;;;0.40;;
11533;SDS011;5823;50.588;8.462;2022-08-24T07:10:42;0.40;;;0.40;;
11533;SDS011;5823;50.588;8.462;2022-08-24T07:13:08;0.20;;;0.20;;
11533;SDS011;5823;50.588;8.462;2022-08-24T07:15:35;0.28;;;0.22;;
11533;SDS011;5823;50.588;8.462;2022-08-24T07:18:02;0.28;;;0.28;;
11533;SDS011;5823;50.588;8.462;2022-08-24T07:20:28;0.30;;;0.22;;
11533;SDS011;5823;50.588;8.462;2022-08-24T07:22:55;0.10;;;0.10;;
11533;SDS011;5823;50.588;8.462;2022-08-24T07:25:22;0.20;;;0.20;;
11533;SDS011;5823;50.588;8.462;2022-08-24T07:27:49;0.17;;;0.17;;
11533;SDS011;5823;50.588;8.462;2022-08-24T07:30:15;0.10;;;0.10;;
11533;SDS011;5823;50.588;8.462;2022-08-24T07:32:42;0.13;;;0.13;;
11533;SDS011;5823;50.588;8.462;2022-08-24T07:35:08;0.20;;;0.20;;
11533;SDS011;5823;50.588;8.462;2022-08-24T07:37:34;0.40;;;0.20;;
11533;SDS011;5823;50.588;8.462;2022-08-24T07:40:01;0.25;;;0.25;;
11533;SDS011;5823;50.588;8.462;2022-08-24T07:42:29;0.13;;;0.13;;
11533;SDS011;5823;50.588;8.462;2022-08-24T07:44:55;0.05;;;0.05;;
11533;SDS011;5823;50.588;8.462;2022-08-24T07:47:21;0.25;;;0.25;;
11533;SDS011;5823;50.588;8.462;2022-08-24T07:49:48;0.10;;;0.10;;
11533;SDS011;5823;50.588;8.462;2022-08-24T07:52:14;0.10;;;0.10;;
11533;SDS011;5823;50.588;8.462;2022-08-24T07:54:40;0.10;;;0.10;;
11533;SDS011;5823;50.588;8.462;2022-08-24T07:57:07;0.00;;;0.00;;
11533;SDS011;5823;50.588;8.462;2022-08-24T07:59:35;0.30;;;0.30;;
11533;SDS011;5823;50.588;8.462;2022-08-24T08:02:02;0.20;;;0.20;;
11533;SDS011;5823;50.588;8.462;2022-08-24T08:04:29;0.50;;;0.45;;
11533;SDS011;5823;50.588;8.462;2022-08-24T08:06:56;0.22;;;0.22;;
11533;SDS011;5823;50.588;8.462;2022-08-24T08:09:24;0.28;;;0.28;;
11533;SDS011;5823;50.588;8.462;2022-08-24T08:11:51;0.40;;;0.40;;
11533;SDS011;5823;50.588;8.462;2022-08-24T08:14:17;0.22;;;0.22;;
11533;SDS011;5823;50.588;8.462;2022-08-24T08:16:45;0.35;;;0.35;;
11533;SDS011;5823;50.588;8.462;2022-08-24T08:19:11;0.32;;;0.30;;
11533;SDS011;5823;50.588;8.462;2022-08-24T08:21:42;0.20;;;0.20;;
11533;SDS011;5823;50.588;8.462;2022-08-24T08:24:26;0.10;;;0.10;;
11533;SDS011;5823;50.588;8.462;2022-08-24T08:26:53;0.38;;;0.38;;
11533;SDS011;5823;50.588;8.462;2022-08-24T08:29:19;0.30;;;0.30;;
11533;SDS011;5823;50.588;8.462;2022-08-24T08:31:47;0.35;;;0.35;;
11533;SDS011;5823;50.588;8.462;2022-08-24T08:34:13;0.65;;;0.50;;
11533;SDS011;5823;50.588;8.462;2022-08-24T08:36:40;0.30;;;0.30;;
11533;SDS011;5823;50.588;8.462;2022-08-24T08:39:06;0.43;;;0.40;;
11533;SDS011;5823;50.588;8.462;2022-08-24T08:41:54;0.40;;;0.30;;
11533;SDS011;5823;50.588;8.462;2022-08-24T08:44:25;0.40;;;0.40;;
11533;SDS011;5823;50.588;8.462;2022-08-24T08:47:02;0.40;;;0.40;;
11533;SDS011;5823;50.588;8.462;2022-08-24T08:49:41;0.40;;;0.40;;
11533;SDS011;5823;50.588;8.462;2022-08-24T08:52:18;0.25;;;0.25;;
11533;SDS011;5823;50.588;8.462;2022-08-24T08:54:53;0.10;;;0.10;;
11533;SDS011;5823;50.588;8.462;2022-08-24T08:57:30;0.40;;;0.40;;
11533;SDS011;5823;50.588;8.462;2022-08-24T09:00:06;0.30;;;0.30;;
11533;SDS011;5823;50.588;8.462;2022-08-24T09:02:40;0.25;;;0.25;;
11533;SDS011;5823;50.588;8.462;2022-08-24T09:05:24;0.50;;;0.50;;
11533;SDS011;5823;50.588;8.462;2022-08-24T09:07:54;0.40;;;0.40;;
11533;SDS011;5823;50.588;8.462;2022-08-24T09:10:34;0.25;;;0.25;;
11533;SDS011;5823;50.588;8.462;2022-08-24T09:13:10;0.40;;;0.38;;
11533;SDS011;5823;50.588;8.462;2022-08-24T09:15:55;0.68;;;0.68;;
11533;SDS011;5823;50.588;8.462;2022-08-24T09:18:34;0.50;;;0.50;;
11533;SDS011;5823;50.588;8.462;2022-08-24T09:23:51;0.60;;;0.60;;
11533;SDS011;5823;50.588;8.462;2022-08-24T09:26:24;0.35;;;0.35;;
11533;SDS011;5823;50.588;8.462;2022-08-24T09:28:52;0.52;;;0.52;;
11533;SDS011;5823;50.588;8.462;2022-08-24T09:31:26;0.30;;;0.30;;
11533;SDS011;5823;50.588;8.462;2022-08-24T09:34:00;0.40;;;0.40;;
11533;SDS011;5823;50.588;8.462;2022-08-24T09:36:28;0.32;;;0.32;;
11533;SDS011;5823;50.588;8.462;2022-08-24T09:38:58;0.40;;;0.40;;
11533;SDS011;5823;50.588;8.462;2022-08-24T09:41:39;0.10;;;0.10;;
11533;SDS011;5823;50.588;8.462;2022-08-24T09:44:19;0.30;;;0.30;;
11533;SDS011;5823;50.588;8.462;2022-08-24T09:47:13;0.40;;;0.40;;
11533;SDS011;5823;50.588;8.462;2022-08-24T09:49:51;0.28;;;0.28;;
11533;SDS011;5823;50.588;8.462;2022-08-24T09:52:27;0.43;;;0.43;;
11533;SDS011;5823;50.588;8.462;2022-08-24T09:55:07;0.30;;;0.30;;
11533;SDS011;5823;50.588;8.462;2022-08-24T09:57:49;0.43;;;0.43;;
11533;SDS011;5823;50.588;8.462;2022-08-24T10:00:20;0.30;;;0.30;;
11533;SDS011;5823;50.588;8.462;2022-08-24T10:02:52;0.30;;;0.30;;
11533;SDS011;5823;50.588;8.462;2022-08-24T10:05:27;0.50;;;0.50;;
11533;SDS011;5823;50.588;8.462;2022-08-24T10:07:57;0.30;;;0.30;;
11533;SDS011;5823;50.588;8.462;2022-08-24T10:10:30;0.22;;;0.22;;
11533;SDS011;5823;50.588;8.462;2022-08-24T10:13:02;0.20;;;0.20;;
11533;SDS011;5823;50.588;8.462;2022-08-24T10:15:33;0.32;;;0.32;;
11533;SDS011;5823;50.588;8.462;2022-08-24T10:18:13;0.20;;;0.20;;
11533;SDS011;5823;50.588;8.462;2022-08-24T10:23:33;0.20;;;0.20;;
11533;SDS011;5823;50.588;8.462;2022-08-24T10:26:02;0.20;;;0.20;;
11533;SDS011;5823;50.588;8.462;2022-08-24T10:28:32;0.30;;;0.30;;
11533;SDS011;5823;50.588;8.462;2022-08-24T10:31:02;0.47;;;0.47;;
11533;SDS011;5823;50.588;8.462;2022-08-24T10:33:30;0.40;;;0.40;;
11533;SDS011;5823;50.588;8.462;2022-08-24T10:36:06;0.20;;;0.20;;
11533;SDS011;5823;50.588;8.462;2022-08-24T10:38:35;0.28;;;0.28;;
11533;SDS011;5823;50.588;8.462;2022-08-24T10:44:19;0.50;;;0.50;;
11533;SDS011;5823;50.588;8.462;2022-08-24T10:46:52;0.55;;;0.55;;
11533;SDS011;5823;50.588;8.462;2022-08-24T10:52:08;0.50;;;0.45;;
11533;SDS011;5823;50.588;8.462;2022-08-24T10:54:43;0.30;;;0.30;;
11533;SDS011;5823;50.588;8.462;2022-08-24T10:57:13;0.57;;;0.57;;
11533;SDS011;5823;50.588;8.462;2022-08-24T10:59:42;0.47;;;0.47;;
11533;SDS011;5823;50.588;8.462;2022-08-24T11:02:27;0.47;;;0.47;;
11533;SDS011;5823;50.588;8.462;2022-08-24T11:04:54;0.52;;;0.47;;
11533;SDS011;5823;50.588;8.462;2022-08-24T11:07:21;0.65;;;0.52;;
11533;SDS011;5823;50.588;8.462;2022-08-24T11:09:50;0.45;;;0.45;;
11533;SDS011;5823;50.588;8.462;2022-08-24T11:12:20;0.50;;;0.50;;
11533;SDS011;5823;50.588;8.462;2022-08-24T11:14:48;0.50;;;0.50;;
11533;SDS011;5823;50.588;8.462;2022-08-24T11:17:15;0.45;;;0.45;;
11533;SDS011;5823;50.588;8.462;2022-08-24T11:19:42;0.60;;;0.60;;
11533;SDS011;5823;50.588;8.462;2022-08-24T11:22:20;0.40;;;0.40;;
11533;SDS011;5823;50.588;8.462;2022-08-24T11:24:52;0.50;;;0.50;;
11533;SDS011;5823;50.588;8.462;2022-08-24T11:27:22;0.40;;;0.40;;
11533;SDS011;5823;50.588;8.462;2022-08-24T11:29:56;0.50;;;0.50;;
11533;SDS011;5823;50.588;8.462;2022-08-24T11:32:31;0.50;;;0.50;;
11533;SDS011;5823;50.588;8.462;2022-08-24T11:35:02;0.40;;;0.40;;
11533;SDS011;5823;50.588;8.462;2022-08-24T11:37:30;0.57;;;0.57;;
11533;SDS011;5823;50.588;8.462;2022-08-24T11:39:58;0.50;;;0.50;;
11533;SDS011;5823;50.588;8.462;2022-08-24T11:42:29;0.40;;;0.40;;
11533;SDS011;5823;50.588;8.462;2022-08-24T11:44:59;0.30;;;0.30;;
11533;SDS011;5823;50.588;8.462;2022-08-24T11:47:50;0.60;;;0.60;;
11533;SDS011;5823;50.588;8.462;2022-08-24T11:50:20;0.93;;;0.73;;
11533;SDS011;5823;50.588;8.462;2022-08-24T11:52:51;0.85;;;0.85;;
11533;SDS011;5823;50.588;8.462;2022-08-24T11:55:23;0.80;;;0.80;;
11533;SDS011;5823;50.588;8.462;2022-08-24T11:57:52;0.80;;;0.80;;
11533;SDS011;5823;50.588;8.462;2022-08-24T12:00:20;0.80;;;0.57;;
11533;SDS011;5823;50.588;8.462;2022-08-24T12:02:49;0.45;;;0.45;;
11533;SDS011;5823;50.588;8.462;2022-08-24T12:05:21;0.40;;;0.40;;
11533;SDS011;5823;50.588;8.462;2022-08-24T12:07:51;0.50;;;0.50;;
11533;SDS011;5823;50.588;8.462;2022-08-24T12:10:25;0.70;;;0.70;;
11533;SDS011;5823;50.588;8.462;2022-08-24T12:12:56;0.60;;;0.60;;
11533;SDS011;5823;50.588;8.462;2022-08-24T12:15:26;0.75;;;0.40;;
11533;SDS011;5823;50.588;8.462;2022-08-24T12:17:56;0.88;;;0.80;;
11533;SDS011;5823;50.588;8.462;2022-08-24T12:20:27;0.60;;;0.60;;
11533;SDS011;5823;50.588;8.462;2022-08-24T12:22:57;0.50;;;0.50;;
11533;SDS011;5823;50.588;8.462;2022-08-24T12:25:27;0.57;;;0.57;;
11533;SDS011;5823;50.588;8.462;2022-08-24T12:28:12;0.55;;;0.55;;
11533;SDS011;5823;50.588;8.462;2022-08-24T12:30:39;0.50;;;0.50;;
11533;SDS011;5823;50.588;8.462;2022-08-24T12:33:07;0.60;;;0.60;;
11533;SDS011;5823;50.588;8.462;2022-08-24T12:35:35;0.40;;;0.40;;
11533;SDS011;5823;50.588;8.462;2022-08-24T12:38:05;0.50;;;0.50;;
11533;SDS011;5823;50.588;8.462;2022-08-24T12:40:36;1.25;;;0.80;;
11533;SDS011;5823;50.588;8.462;2022-08-24T12:43:06;0.85;;;0.70;;
11533;SDS011;5823;50.588;8.462;2022-08-24T12:45:33;0.60;;;0.60;;
11533;SDS011;5823;50.588;8.462;2022-08-24T12:48:01;1.23;;;0.55;;
11533;SDS011;5823;50.588;8.462;2022-08-24T12:50:32;0.60;;;0.60;;
11533;SDS011;5823;50.588;8.462;2022-08-24T12:53:17;1.10;;;1.00;;
11533;SDS011;5823;50.588;8.462;2022-08-24T13:01:15;0.55;;;0.55;;
11533;SDS011;5823;50.588;8.462;2022-08-24T13:03:43;0.77;;;0.77;;
11533;SDS011;5823;50.588;8.462;2022-08-24T13:06:15;0.52;;;0.52;;
11533;SDS011;5823;50.588;8.462;2022-08-24T13:08:43;0.60;;;0.60;;
11533;SDS011;5823;50.588;8.462;2022-08-24T13:11:12;0.50;;;0.50;;
11533;SDS011;5823;50.588;8.462;2022-08-24T13:13:43;0.60;;;0.60;;
11533;SDS011;5823;50.588;8.462;2022-08-24T13:16:10;0.50;;;0.50;;
11533;SDS011;5823;50.588;8.462;2022-08-24T13:18:49;0.60;;;0.60;;
11533;SDS011;5823;50.588;8.462;2022-08-24T13:26:48;0.68;;;0.68;;
11533;SDS011;5823;50.588;8.462;2022-08-24T13:29:14;0.68;;;0.68;;
11533;SDS011;5823;50.588;8.462;2022-08-24T13:31:42;0.40;;;0.40;;
11533;SDS011;5823;50.588;8.462;2022-08-24T13:37:09;0.40;;;0.40;;
11533;SDS011;5823;50.588;8.462;2022-08-24T13:39:38;0.50;;;0.50;;
11533;SDS011;5823;50.588;8.462;2022-08-24T13:42:09;0.68;;;0.68;;
11533;SDS011;5823;50.588;8.462;2022-08-24T13:44:44;0.60;;;0.60;;
11533;SDS011;5823;50.588;8.462;2022-08-24T13:47:17;0.63;;;0.63;;
11533;SDS011;5823;50.588;8.462;2022-08-24T13:49:55;0.63;;;0.63;;
11533;SDS011;5823;50.588;8.462;2022-08-24T13:52:30;0.70;;;0.70;;
11533;SDS011;5823;50.588;8.462;2022-08-24T13:55:05;0.80;;;0.80;;
11533;SDS011;5823;50.588;8.462;2022-08-24T13:57:33;0.70;;;0.70;;
11533;SDS011;5823;50.588;8.462;2022-08-24T14:03:05;1.00;;;0.95;;
11533;SDS011;5823;50.588;8.462;2022-08-24T14:05:34;0.80;;;0.80;;
11533;SDS011;5823;50.588;8.462;2022-08-24T14:08:10;0.90;;;0.90;;
11533;SDS011;5823;50.588;8.462;2022-08-24T14:10:51;0.70;;;0.70;;
11533;SDS011;5823;50.588;8.462;2022-08-24T14:13:25;0.80;;;0.80;;
11533;SDS011;5823;50.588;8.462;2022-08-24T14:15:57;0.70;;;0.70;;
11533;SDS011;5823;50.588;8.462;2022-08-24T14:18:42;0.80;;;0.68;;
11533;SDS011;5823;50.588;8.462;2022-08-24T14:21:10;0.60;;;0.60;;
11533;SDS011;5823;50.588;8.462;2022-08-24T14:23:50;0.75;;;0.75;;
11533;SDS011;5823;50.588;8.462;2022-08-24T14:34:33;0.52;;;0.52;;
11533;SDS011;5823;50.588;8.462;2022-08-24T14:37:01;0.77;;;0.77;;
11533;SDS011;5823;50.588;8.462;2022-08-24T14:39:33;0.80;;;0.80;;
11533;SDS011;5823;50.588;8.462;2022-08-24T14:42:04;0.90;;;0.90;;
11533;SDS011;5823;50.588;8.462;2022-08-24T14:47:32;0.80;;;0.80;;
11533;SDS011;5823;50.588;8.462;2022-08-24T14:50:03;0.82;;;0.77;;
11533;SDS011;5823;50.588;8.462;2022-08-24T14:52:42;0.50;;;0.50;;
11533;SDS011;5823;50.588;8.462;2022-08-24T14:55:19;0.40;;;0.40;;
11533;SDS011;5823;50.588;8.462;2022-08-24T14:57:54;0.60;;;0.60;;
11533;SDS011;5823;50.588;8.462;2022-08-24T15:00:23;0.43;;;0.43;;
11533;SDS011;5823;50.588;8.462;2022-08-24T15:03:04;0.60;;;0.60;;
11533;SDS011;5823;50.588;8.462;2022-08-24T15:05:35;0.50;;;0.50;;
11533;SDS011;5823;50.588;8.462;2022-08-24T15:08:04;0.35;;;0.35;;
11533;SDS011;5823;50.588;8.462;2022-08-24T15:10:34;0.43;;;0.43;;
11533;SDS011;5823;50.588;8.462;2022-08-24T15:13:04;0.50;;;0.50;;
11533;SDS011;5823;50.588;8.462;2022-08-24T15:15:33;0.75;;;0.75;;
11533;SDS011;5823;50.588;8.462;2022-08-24T15:18:04;1.05;;;0.98;;
11533;SDS011;5823;50.588;8.462;2022-08-24T15:23:21;0.60;;;0.60;;
11533;SDS011;5823;50.588;8.462;2022-08-24T15:25:52;0.60;;;0.60;;
11533;SDS011;5823;50.588;8.462;2022-08-24T15:28:21;0.60;;;0.60;;
11533;SDS011;5823;50.588;8.462;2022-08-24T15:30:52;0.68;;;0.68;;
11533;SDS011;5823;50.588;8.462;2022-08-24T15:33:19;0.70;;;0.50;;
11533;SDS011;5823;50.588;8.462;2022-08-24T15:35:46;0.45;;;0.45;;
11533;SDS011;5823;50.588;8.462;2022-08-24T15:38:17;0.50;;;0.50;;
11533;SDS011;5823;50.588;8.462;2022-08-24T15:40:44;0.70;;;0.70;;
11533;SDS011;5823;50.588;8.462;2022-08-24T15:43:12;0.60;;;0.60;;
11533;SDS011;5823;50.588;8.462;2022-08-24T15:45:41;0.45;;;0.45;;
11533;SDS011;5823;50.588;8.462;2022-08-24T15:48:09;0.30;;;0.30;;
11533;SDS011;5823;50.588;8.462;2022-08-24T15:50:39;0.55;;;0.55;;
11533;SDS011;5823;50.588;8.462;2022-08-24T15:53:07;0.38;;;0.38;;
11533;SDS011;5823;50.588;8.462;2022-08-24T15:55:49;0.50;;;0.50;;